If you wish to contribute or participate in the discussions about articles you are invited to join SKYbrary as a registered user

 Actions

El Palomar Airport

From SKYbrary Wiki

SADP
Airport
ICAO: SADP – IATA: EPA
Summary
Name El Palomar Airport
Region South America and Caribbean
Territory Argentina AR.gif
Location El Palomar, Buenos Aires
Serving El Palomar
Elevation 17.983 m
59 ft
59 ft17.983 m
Type medium airport
Coordinates 34° 36' 35.78" S, 58° 36' 45.33" W
Runways
Designator Length Width Surface ROPS
16/34 2110 m6,922.572 ft
50 m164.042 ft
CON /


METAR
Observation SADP 171746Z 29013G23KT 250V310 CAVOK 23/01 Q1008
Station El Palomar Aerodrome
Date/Time 17 September 2019 17:46:00
Wind direction 290°
Wind speed 13 kts
Lowest cloud amount clouds and visibility OK
Temperature 23°C
Dew point 1°C
Humidity 23%
QNH 1008 hPa
Weather condition n/a

Military airport 18km 9.719 nm
18,000 m
59,055.118 ft
west of Buenos Aires, Argentina.

Climatology

Humid subtropical climate (Köppen climate classification Cfa).

Maps

Terrain

Loading map...

Airport Layout

Loading map...


Accidents & Serious Incidents at or in vicinity of SADP

None on SKYbrary